createdAt,value
2023-02-01T00:00:29.661Z,3.20
2023-02-01T00:02:56.389Z,3.10
2023-02-01T00:05:23.043Z,3.10
2023-02-01T00:07:49.688Z,3.10
2023-02-01T00:10:16.617Z,3.10
2023-02-01T00:12:43.345Z,3.10
2023-02-01T00:15:10.130Z,3.10
2023-02-01T00:17:36.879Z,3.10
2023-02-01T00:20:04.132Z,3.00
2023-02-01T00:22:30.830Z,3.00
2023-02-01T00:24:57.577Z,2.90
2023-02-01T00:27:24.258Z,2.90
2023-02-01T00:29:50.951Z,2.90
2023-02-01T00:32:17.663Z,2.90
2023-02-01T00:34:44.334Z,3.00
2023-02-01T00:37:11.007Z,3.00
2023-02-01T00:39:37.762Z,3.00
2023-02-01T00:42:04.678Z,3.00
2023-02-01T00:44:31.403Z,3.00
2023-02-01T00:46:58.095Z,3.00
2023-02-01T00:49:24.748Z,3.00
2023-02-01T00:51:51.400Z,3.00
2023-02-01T00:54:18.115Z,3.00
2023-02-01T00:56:44.798Z,3.00
2023-02-01T00:59:14.355Z,3.00
2023-02-01T01:01:41.115Z,3.00
2023-02-01T01:04:07.781Z,3.10
2023-02-01T01:06:35.167Z,3.00
2023-02-01T01:09:04.468Z,3.00
2023-02-01T01:11:34.226Z,3.00
2023-02-01T01:14:01.628Z,3.00
2023-02-01T01:16:29.729Z,3.00
2023-02-01T01:18:57.089Z,2.90
2023-02-01T01:21:24.364Z,2.90
2023-02-01T01:23:51.115Z,2.90
2023-02-01T01:26:29.934Z,2.80
2023-02-01T01:28:58.064Z,2.80
2023-02-01T01:31:26.711Z,2.80
2023-02-01T01:33:55.840Z,2.80
2023-02-01T01:36:23.643Z,2.80
2023-02-01T01:38:50.415Z,2.80
2023-02-01T01:41:23.882Z,2.80
2023-02-01T01:44:05.462Z,2.80
2023-02-01T01:46:35.960Z,2.90
2023-02-01T01:49:08.759Z,2.80
2023-02-01T01:51:43.363Z,2.80
2023-02-01T01:54:33.371Z,2.80
2023-02-01T01:57:05.399Z,2.80
2023-02-01T01:59:35.207Z,2.80
2023-02-01T02:02:01.915Z,2.80
2023-02-01T02:04:29.008Z,2.80
2023-02-01T02:06:58.351Z,2.90
2023-02-01T02:09:25.167Z,2.90
2023-02-01T02:11:51.818Z,2.90
2023-02-01T02:14:20.823Z,2.90
2023-02-01T02:16:58.454Z,2.90
2023-02-01T02:19:43.423Z,3.00
2023-02-01T02:22:47.719Z,3.00
2023-02-01T02:25:44.566Z,3.00
2023-02-01T02:28:16.973Z,3.00
2023-02-01T02:30:54.973Z,3.00
2023-02-01T02:33:36.717Z,3.00
2023-02-01T02:36:24.576Z,3.00
2023-02-01T02:39:20.339Z,3.00
2023-02-01T02:42:02.047Z,3.10
2023-02-01T02:45:02.027Z,3.00
2023-02-01T02:47:46.219Z,3.00
2023-02-01T02:50:25.443Z,3.10
2023-02-01T02:53:11.454Z,3.00
2023-02-01T02:55:40.265Z,3.10
2023-02-01T02:58:09.298Z,3.10
2023-02-01T03:00:37.642Z,3.10
2023-02-01T03:03:04.748Z,3.10
2023-02-01T03:05:41.168Z,3.10
2023-02-01T03:08:17.040Z,3.10
2023-02-01T03:11:10.167Z,3.20
2023-02-01T03:13:53.587Z,3.20
2023-02-01T03:16:34.417Z,3.10
2023-02-01T03:19:09.886Z,3.10
2023-02-01T03:22:02.460Z,3.20
2023-02-01T03:25:10.019Z,3.20
2023-02-01T03:27:42.312Z,3.20
2023-02-01T03:30:09.005Z,3.20
2023-02-01T03:32:38.372Z,3.10
2023-02-01T03:35:05.496Z,3.20
2023-02-01T03:37:32.212Z,3.20
2023-02-01T03:40:02.152Z,3.20
2023-02-01T03:42:41.150Z,3.20
2023-02-01T03:45:27.151Z,3.20
2023-02-01T03:47:56.985Z,3.30
2023-02-01T03:50:25.734Z,3.20
2023-02-01T03:53:04.264Z,3.20
2023-02-01T03:55:32.432Z,3.30
2023-02-01T03:58:15.521Z,3.30
2023-02-01T04:00:45.752Z,3.30
2023-02-01T04:03:12.527Z,3.30
2023-02-01T04:05:39.183Z,3.30
2023-02-01T04:08:05.880Z,3.30
2023-02-01T04:10:32.650Z,3.30
2023-02-01T04:12:59.401Z,3.40
2023-02-01T04:15:26.084Z,3.30
2023-02-01T04:17:52.815Z,3.40
2023-02-01T04:20:19.537Z,3.40
2023-02-01T04:22:46.222Z,3.50
2023-02-01T04:25:12.967Z,3.50
2023-02-01T04:30:06.358Z,3.50
2023-02-01T04:32:33.034Z,3.60
2023-02-01T04:34:59.720Z,3.60
2023-02-01T04:37:26.444Z,3.50
2023-02-01T04:39:53.111Z,3.60
2023-02-01T04:42:19.800Z,3.70
2023-02-01T04:44:46.625Z,3.70
2023-02-01T04:47:13.366Z,3.70
2023-02-01T04:49:40.072Z,3.70
2023-02-01T04:52:06.820Z,3.70
2023-02-01T04:54:33.590Z,3.80
2023-02-01T04:57:00.578Z,3.80
2023-02-01T04:59:27.728Z,3.80
2023-02-01T05:01:54.360Z,3.80
2023-02-01T05:04:21.340Z,3.90
2023-02-01T05:06:48.116Z,3.90
2023-02-01T05:09:14.776Z,3.90
2023-02-01T05:11:41.647Z,3.90
2023-02-01T05:14:08.270Z,3.90
2023-02-01T05:16:34.954Z,3.90
2023-02-01T05:19:01.644Z,4.00
2023-02-01T05:21:28.358Z,4.00
2023-02-01T05:23:55.047Z,4.00
2023-02-01T05:26:21.844Z,4.00
2023-02-01T05:28:48.597Z,4.00
2023-02-01T05:31:15.405Z,4.00
2023-02-01T05:33:42.161Z,4.00
2023-02-01T05:36:09.185Z,4.10
2023-02-01T05:38:35.828Z,4.10
2023-02-01T05:41:02.501Z,4.00
2023-02-01T05:43:29.193Z,4.00
2023-02-01T05:45:55.913Z,4.00
2023-02-01T05:48:22.662Z,4.10
2023-02-01T05:50:49.411Z,4.10
2023-02-01T05:53:16.007Z,4.10
2023-02-01T05:55:43.798Z,4.10
2023-02-01T05:58:10.482Z,4.20
2023-02-01T06:00:37.420Z,4.10
2023-02-01T06:03:04.179Z,4.10
2023-02-01T06:05:31.124Z,4.10
2023-02-01T06:07:57.825Z,4.10
2023-02-01T06:10:24.924Z,4.10
2023-02-01T06:12:51.812Z,4.20
2023-02-01T06:15:18.577Z,4.20
2023-02-01T06:17:46.641Z,4.10
2023-02-01T06:20:15.553Z,4.10
2023-02-01T06:22:42.388Z,4.10
2023-02-01T06:25:11.050Z,4.10
2023-02-01T06:27:38.065Z,4.10
2023-02-01T06:30:06.665Z,3.90
2023-02-01T06:32:33.720Z,3.90
2023-02-01T06:35:00.391Z,3.70
2023-02-01T06:37:27.667Z,3.70
2023-02-01T06:39:54.449Z,3.70
2023-02-01T06:42:21.186Z,3.60
2023-02-01T06:44:47.834Z,3.60
2023-02-01T06:47:14.513Z,3.60
2023-02-01T06:49:41.170Z,3.60
2023-02-01T06:52:07.895Z,3.50
2023-02-01T06:54:34.599Z,3.60
2023-02-01T06:57:01.542Z,3.50
2023-02-01T06:59:28.256Z,3.60
2023-02-01T07:01:55.004Z,3.50
2023-02-01T07:04:21.739Z,3.50
2023-02-01T07:06:48.396Z,3.50
2023-02-01T07:09:15.177Z,3.50
2023-02-01T07:11:41.920Z,3.50
2023-02-01T07:14:08.765Z,3.60
2023-02-01T07:16:35.777Z,3.60
2023-02-01T07:19:02.507Z,3.60
2023-02-01T07:21:29.222Z,3.60
2023-02-01T07:23:56.309Z,3.60
2023-02-01T07:26:22.994Z,3.60
2023-02-01T07:28:49.742Z,3.60
2023-02-01T07:31:20.578Z,3.60
2023-02-01T07:33:47.871Z,3.60
2023-02-01T07:36:16.840Z,3.50
2023-02-01T07:38:44.094Z,3.50
2023-02-01T07:41:11.001Z,3.50
2023-02-01T07:43:37.728Z,3.60
2023-02-01T07:46:05.788Z,3.60
2023-02-01T07:48:32.922Z,3.60
2023-02-01T07:51:05.130Z,3.60
2023-02-01T07:53:33.638Z,3.50
2023-02-01T07:56:00.942Z,3.50
2023-02-01T07:58:28.221Z,3.40
2023-02-01T08:00:55.829Z,3.30
2023-02-01T08:03:22.580Z,3.20
2023-02-01T08:05:49.447Z,3.10
2023-02-01T08:08:16.258Z,3.10
2023-02-01T08:10:42.940Z,3.00
2023-02-01T08:13:09.652Z,2.80
2023-02-01T08:15:36.381Z,2.80
2023-02-01T08:18:03.110Z,2.70
2023-02-01T08:20:30.465Z,2.70
2023-02-01T08:22:57.456Z,2.60
2023-02-01T08:25:25.108Z,2.50
2023-02-01T08:27:52.620Z,2.50
2023-02-01T08:30:19.359Z,2.40
2023-02-01T08:32:46.030Z,2.40
2023-02-01T08:35:12.749Z,2.50
2023-02-01T08:37:39.481Z,2.40
2023-02-01T08:40:06.833Z,2.40
2023-02-01T08:42:33.675Z,2.40
2023-02-01T08:45:00.407Z,2.40
2023-02-01T08:47:27.100Z,2.40
2023-02-01T08:49:53.867Z,2.40
2023-02-01T08:52:20.626Z,2.40
2023-02-01T08:54:47.361Z,2.40
2023-02-01T08:57:14.067Z,2.40
2023-02-01T08:59:40.832Z,2.40
2023-02-01T09:02:09.474Z,2.40
2023-02-01T09:04:36.199Z,2.50
2023-02-01T09:07:02.912Z,2.50
2023-02-01T09:09:30.017Z,2.40
2023-02-01T09:11:56.819Z,2.50
2023-02-01T09:14:25.231Z,2.50
2023-02-01T09:16:53.638Z,2.50
2023-02-01T09:19:26.379Z,2.50
2023-02-01T09:21:53.781Z,2.50
2023-02-01T09:24:20.896Z,2.60
2023-02-01T09:26:47.648Z,2.70
2023-02-01T09:29:14.442Z,2.70
2023-02-01T09:31:44.182Z,2.70
2023-02-01T09:34:16.451Z,2.80
2023-02-01T09:36:43.114Z,2.70
2023-02-01T09:39:10.029Z,2.80
2023-02-01T09:41:57.849Z,2.80
2023-02-01T09:44:42.458Z,2.90
2023-02-01T09:47:19.750Z,2.90
2023-02-01T09:50:06.088Z,2.90
2023-02-01T09:52:39.506Z,3.00
2023-02-01T09:55:19.043Z,3.00
2023-02-01T09:58:25.924Z,3.00
2023-02-01T10:00:58.562Z,3.00
2023-02-01T10:03:28.774Z,3.00
2023-02-01T10:06:13.779Z,3.00
2023-02-01T10:09:13.761Z,3.10
2023-02-01T10:12:14.937Z,3.10
2023-02-01T10:14:59.439Z,3.10
2023-02-01T10:17:47.457Z,3.00
2023-02-01T10:20:44.940Z,2.90
2023-02-01T10:23:49.078Z,2.80
2023-02-01T10:26:26.819Z,2.80
2023-02-01T10:28:58.035Z,2.80
2023-02-01T10:31:28.578Z,2.80
2023-02-01T10:34:11.849Z,2.70
2023-02-01T10:36:47.786Z,2.80
2023-02-01T10:39:15.478Z,2.80
2023-02-01T10:41:42.481Z,2.80
2023-02-01T10:44:14.932Z,2.90
2023-02-01T10:46:41.752Z,3.00
2023-02-01T10:49:39.326Z,3.10
2023-02-01T10:52:29.271Z,3.10
2023-02-01T10:54:55.964Z,3.10
2023-02-01T10:57:27.364Z,3.10
2023-02-01T10:59:54.230Z,3.00
2023-02-01T11:02:32.730Z,2.90
2023-02-01T11:05:06.382Z,2.90
2023-02-01T11:07:33.832Z,2.80
2023-02-01T11:10:00.529Z,2.80
2023-02-01T11:12:29.940Z,2.90
2023-02-01T11:15:15.256Z,2.90
2023-02-01T11:17:45.823Z,2.90
2023-02-01T11:20:22.755Z,3.00
2023-02-01T11:22:57.394Z,3.00
2023-02-01T11:25:25.814Z,3.00
2023-02-01T11:27:55.957Z,3.10
2023-02-01T11:30:35.240Z,3.20
2023-02-01T11:33:06.288Z,3.30
2023-02-01T11:35:35.556Z,3.30
2023-02-01T11:38:11.535Z,3.40
2023-02-01T11:40:39.680Z,3.40
2023-02-01T11:43:24.220Z,3.50
2023-02-01T11:46:00.075Z,3.60
2023-02-01T11:48:29.680Z,3.70
2023-02-01T11:51:07.520Z,3.70
2023-02-01T11:53:43.140Z,3.80
2023-02-01T11:56:31.183Z,3.80
2023-02-01T11:59:18.330Z,3.90
2023-02-01T12:02:20.311Z,3.90
2023-02-01T12:04:54.461Z,4.00
2023-02-01T12:07:56.639Z,4.10
2023-02-01T12:10:38.313Z,4.20
2023-02-01T12:13:13.215Z,4.20
2023-02-01T12:16:00.743Z,4.30
2023-02-01T12:18:48.529Z,4.40
2023-02-01T12:21:21.276Z,4.50
2023-02-01T12:24:17.020Z,4.50
2023-02-01T12:27:21.706Z,4.50
2023-02-01T12:30:15.053Z,4.60
2023-02-01T12:32:53.809Z,4.50
2023-02-01T12:35:39.359Z,4.60
2023-02-01T12:38:35.087Z,4.50
2023-02-01T12:41:07.946Z,4.50
2023-02-01T12:44:01.105Z,4.50
2023-02-01T12:46:40.791Z,4.50
2023-02-01T12:49:28.911Z,4.50
2023-02-01T12:52:01.840Z,4.50
2023-02-01T12:54:38.533Z,4.50
2023-02-01T12:57:12.178Z,4.50
2023-02-01T12:59:49.905Z,4.60
2023-02-01T13:02:19.378Z,4.60
2023-02-01T13:04:58.249Z,4.60
2023-02-01T13:07:58.721Z,4.70
2023-02-01T13:10:40.133Z,4.70
2023-02-01T13:13:20.035Z,4.80
2023-02-01T13:15:58.256Z,4.80
2023-02-01T13:18:33.470Z,4.90
2023-02-01T13:21:11.705Z,4.90
2023-02-01T13:23:40.822Z,4.90
2023-02-01T13:26:07.654Z,4.90
2023-02-01T13:28:41.324Z,5.00
2023-02-01T13:31:38.773Z,4.90
2023-02-01T13:34:26.690Z,4.90
2023-02-01T13:37:22.490Z,4.90
2023-02-01T13:39:58.760Z,4.90
2023-02-01T13:42:57.449Z,4.90
2023-02-01T13:45:28.691Z,4.90
2023-02-01T13:47:58.240Z,4.90
2023-02-01T13:50:32.979Z,4.90
2023-02-01T13:53:12.929Z,4.90
2023-02-01T13:55:46.365Z,4.90
2023-02-01T13:58:23.117Z,5.00
2023-02-01T14:00:51.090Z,5.00
2023-02-01T14:03:23.630Z,5.00
2023-02-01T14:05:50.292Z,5.00
2023-02-01T14:08:46.876Z,5.00
2023-02-01T14:11:32.846Z,5.00
2023-02-01T14:14:17.080Z,4.90
2023-02-01T14:16:45.458Z,5.00
2023-02-01T14:19:38.581Z,4.90
2023-02-01T14:22:23.416Z,4.80
2023-02-01T14:24:52.943Z,4.60
2023-02-01T14:27:23.900Z,4.40
2023-02-01T14:30:03.467Z,4.30
2023-02-01T14:32:36.845Z,4.30
2023-02-01T14:35:08.538Z,4.20
2023-02-01T14:37:39.055Z,4.30
2023-02-01T14:40:27.709Z,4.20
2023-02-01T14:42:55.675Z,4.30
2023-02-01T14:45:22.774Z,4.30
2023-02-01T14:48:02.013Z,4.30
2023-02-01T14:50:31.721Z,4.30
2023-02-01T14:53:13.626Z,4.30
2023-02-01T14:55:51.316Z,4.30
2023-02-01T14:58:41.655Z,4.30
2023-02-01T15:01:24.871Z,4.30
2023-02-01T15:04:10.378Z,4.30
2023-02-01T15:06:48.460Z,4.30
2023-02-01T15:09:46.373Z,4.40
2023-02-01T15:12:12.984Z,4.40
2023-02-01T15:14:45.706Z,4.40
2023-02-01T15:17:25.794Z,4.40
2023-02-01T15:20:00.578Z,4.30
2023-02-01T15:22:29.991Z,4.20
2023-02-01T15:24:58.838Z,4.10
2023-02-01T15:27:26.878Z,3.90
2023-02-01T15:29:53.976Z,3.80
2023-02-01T15:32:31.726Z,3.80
2023-02-01T15:34:58.848Z,3.60
2023-02-01T15:37:25.850Z,3.50
2023-02-01T15:40:11.035Z,3.40
2023-02-01T15:42:59.449Z,3.20
2023-02-01T15:45:29.639Z,3.10
2023-02-01T15:47:58.664Z,3.00
2023-02-01T15:50:27.233Z,2.80
2023-02-01T15:52:56.250Z,2.70
2023-02-01T15:55:34.443Z,2.60
2023-02-01T15:58:01.240Z,2.50
2023-02-01T16:00:49.922Z,2.40
2023-02-01T16:03:34.683Z,2.30
2023-02-01T16:06:03.527Z,2.20
2023-02-01T16:08:32.790Z,2.00
2023-02-01T16:11:29.512Z,1.80
2023-02-01T16:13:56.186Z,1.60
2023-02-01T16:16:23.028Z,1.40
2023-02-01T16:18:49.828Z,1.40
2023-02-01T16:21:16.818Z,1.30
2023-02-01T16:23:43.671Z,1.30
2023-02-01T16:26:10.351Z,1.30
2023-02-01T16:28:37.067Z,1.30
2023-02-01T16:31:03.968Z,1.30
2023-02-01T16:33:31.001Z,1.30
2023-02-01T16:35:58.292Z,1.30
2023-02-01T16:38:24.972Z,1.30
2023-02-01T16:40:51.822Z,1.20
2023-02-01T16:43:23.657Z,1.30
2023-02-01T16:45:53.235Z,1.30
2023-02-01T16:48:26.610Z,1.30
2023-02-01T16:50:59.276Z,1.30
2023-02-01T16:53:28.069Z,1.30
2023-02-01T16:55:55.287Z,1.40
2023-02-01T16:58:22.101Z,1.40
2023-02-01T17:00:49.421Z,1.40
2023-02-01T17:03:16.095Z,1.40
2023-02-01T17:05:45.415Z,1.50
2023-02-01T17:08:15.515Z,1.50
2023-02-01T17:10:42.241Z,1.50
2023-02-01T17:13:16.646Z,1.50
2023-02-01T17:15:58.209Z,1.50
2023-02-01T17:18:25.184Z,1.60
2023-02-01T17:20:52.079Z,1.60
2023-02-01T17:23:20.252Z,1.70
2023-02-01T17:25:46.939Z,1.60
2023-02-01T17:28:13.611Z,1.70
2023-02-01T17:30:42.329Z,1.70
2023-02-01T17:33:26.453Z,1.70
2023-02-01T17:35:55.037Z,1.70
2023-02-01T17:38:22.146Z,1.80
2023-02-01T17:40:48.856Z,1.90
2023-02-01T17:43:20.681Z,1.90
2023-02-01T17:45:52.133Z,1.90
2023-02-01T17:48:20.711Z,1.90
2023-02-01T17:50:49.538Z,1.90
2023-02-01T17:53:16.414Z,2.00
2023-02-01T17:55:45.509Z,2.00
2023-02-01T17:58:13.938Z,2.10
2023-02-01T18:00:42.301Z,2.10
2023-02-01T18:03:17.404Z,2.20
2023-02-01T18:05:44.133Z,2.20
2023-02-01T18:08:10.870Z,2.20
2023-02-01T18:10:37.561Z,2.30
2023-02-01T18:13:04.941Z,2.30
2023-02-01T18:15:32.085Z,2.40
2023-02-01T18:17:59.024Z,2.40
2023-02-01T18:20:27.129Z,2.40
2023-02-01T18:22:54.357Z,2.40
2023-02-01T18:25:22.707Z,2.40
2023-02-01T18:27:51.489Z,2.40
2023-02-01T18:30:22.981Z,2.40
2023-02-01T18:32:50.052Z,2.50
2023-02-01T18:35:43.051Z,2.50
2023-02-01T18:38:10.567Z,2.50
2023-02-01T18:40:47.751Z,2.60
2023-02-01T18:43:14.703Z,2.60
2023-02-01T18:45:43.886Z,2.60
2023-02-01T18:48:12.019Z,2.60
2023-02-01T18:50:41.692Z,2.70
2023-02-01T18:53:16.443Z,2.70
2023-02-01T18:55:43.116Z,2.70
2023-02-01T18:58:13.483Z,2.80
2023-02-01T19:00:40.212Z,2.80
2023-02-01T19:03:06.896Z,2.80
2023-02-01T19:05:33.878Z,2.80
2023-02-01T19:08:00.691Z,2.80
2023-02-01T19:10:27.512Z,2.80
2023-02-01T19:12:54.693Z,2.80
2023-02-01T19:15:22.311Z,2.80
2023-02-01T19:17:51.762Z,2.90
2023-02-01T19:20:24.177Z,2.90
2023-02-01T19:29:11.997Z,3.00
2023-02-01T19:31:38.835Z,3.00
2023-02-01T19:34:05.579Z,2.90
2023-02-01T19:36:42.441Z,3.00
2023-02-01T19:40:26.437Z,2.90
2023-02-01T19:42:44.244Z,2.90
2023-02-01T19:45:11.435Z,3.00
2023-02-01T19:47:39.202Z,3.00
2023-02-01T19:50:07.009Z,3.00
2023-02-01T19:52:34.824Z,3.00
2023-02-01T19:55:01.976Z,3.00
2023-02-01T19:57:30.124Z,3.10
2023-02-01T19:59:57.343Z,3.10
2023-02-01T20:02:23.526Z,3.10
2023-02-01T20:04:50.349Z,3.10
2023-02-01T20:07:17.047Z,3.10
2023-02-01T20:09:43.767Z,3.10
2023-02-01T20:12:11.265Z,3.20
2023-02-01T20:14:38.935Z,3.20
2023-02-01T20:17:06.977Z,3.20
2023-02-01T20:19:34.335Z,3.20
2023-02-01T20:22:01.260Z,3.10
2023-02-01T20:24:27.990Z,3.20
2023-02-01T20:26:55.624Z,3.20
2023-02-01T20:29:22.348Z,3.20
2023-02-01T20:31:49.108Z,3.20
2023-02-01T20:34:15.849Z,3.20
2023-02-01T20:36:42.517Z,3.10
2023-02-01T20:39:09.577Z,3.20
2023-02-01T20:41:36.313Z,3.10
2023-02-01T20:44:03.027Z,3.20
2023-02-01T20:46:29.751Z,3.10
2023-02-01T20:48:56.503Z,3.10
2023-02-01T20:51:23.293Z,3.10
2023-02-01T20:53:50.087Z,3.00
2023-02-01T20:56:16.917Z,3.00
2023-02-01T20:58:44.329Z,3.00
2023-02-01T21:01:11.644Z,3.00
2023-02-01T21:03:38.774Z,3.00
2023-02-01T21:06:06.801Z,3.00
2023-02-01T21:08:34.589Z,3.00
2023-02-01T21:11:05.935Z,3.00
2023-02-01T21:13:34.599Z,2.90
2023-02-01T21:16:01.619Z,2.90
2023-02-01T21:18:28.694Z,3.00
2023-02-01T21:20:55.548Z,3.00
2023-02-01T21:23:22.182Z,2.90
2023-02-01T21:25:48.944Z,2.80
2023-02-01T21:28:15.636Z,2.80
2023-02-01T21:30:42.561Z,2.80
2023-02-01T21:33:09.292Z,2.80
2023-02-01T21:35:40.240Z,2.80
2023-02-01T21:38:06.956Z,2.80
2023-02-01T21:40:33.702Z,2.80
2023-02-01T21:43:00.351Z,2.80
2023-02-01T21:45:27.157Z,2.70
2023-02-01T21:47:53.872Z,2.70
2023-02-01T21:50:20.694Z,2.70
2023-02-01T21:52:47.397Z,2.70
2023-02-01T21:55:14.529Z,2.70
2023-02-01T21:57:41.308Z,2.70
2023-02-01T22:00:08.834Z,2.70
2023-02-01T22:02:36.208Z,2.60
2023-02-01T22:05:04.825Z,2.60
2023-02-01T22:07:32.812Z,2.60
2023-02-01T22:09:59.538Z,2.60
2023-02-01T22:12:26.226Z,2.60
2023-02-01T22:14:52.890Z,2.70
2023-02-01T22:17:19.824Z,2.70
2023-02-01T22:19:46.525Z,2.70
2023-02-01T22:22:13.198Z,2.70
2023-02-01T22:24:39.875Z,2.70
2023-02-01T22:27:13.784Z,2.80
2023-02-01T22:29:42.328Z,2.80
2023-02-01T22:32:09.115Z,2.80
2023-02-01T22:34:35.808Z,2.80
2023-02-01T22:37:02.536Z,2.90
2023-02-01T22:39:29.197Z,2.90
2023-02-01T22:41:55.895Z,2.90
2023-02-01T22:44:22.619Z,2.90
2023-02-01T22:46:49.815Z,3.00
2023-02-01T22:49:17.148Z,3.00
2023-02-01T22:51:43.871Z,3.00
2023-02-01T22:54:18.969Z,3.00
2023-02-01T22:56:45.646Z,3.00
2023-02-01T22:59:13.577Z,3.00
2023-02-01T23:01:40.887Z,3.00
2023-02-01T23:04:10.964Z,3.00
2023-02-01T23:06:37.678Z,3.00
2023-02-01T23:09:17.121Z,3.10
2023-02-01T23:11:44.508Z,3.10
2023-02-01T23:14:13.086Z,3.10
2023-02-01T23:16:40.004Z,3.10
2023-02-01T23:19:06.986Z,3.10
2023-02-01T23:21:33.763Z,3.10
2023-02-01T23:24:01.773Z,3.10
2023-02-01T23:26:30.307Z,3.10
2023-02-01T23:28:58.678Z,3.10
2023-02-01T23:31:27.965Z,3.20
2023-02-01T23:33:54.979Z,3.20
2023-02-01T23:36:23.146Z,3.10
2023-02-01T23:38:50.466Z,3.10
2023-02-01T23:41:19.270Z,3.00
2023-02-01T23:43:46.191Z,3.10
2023-02-01T23:46:13.921Z,3.10
2023-02-01T23:48:40.836Z,3.10
2023-02-01T23:51:08.058Z,3.00
2023-02-01T23:53:35.368Z,3.10
2023-02-01T23:56:02.334Z,3.10
2023-02-01T23:58:29.058Z,3.10
